PWSweather.com
Personal Weather Stations
Station Observations
KPLY111
14 Baltic Ave., Plymouth, MA 02360

14 Baltic Ave.Plymouth, MA 02360

Lat: 41.94, Lon: -70.66

Elevation: 110

Station Type: Davis Vantage Pro Plus 2

http://johnsweather.com/

Latest ConditionsUpdated 8:20:05 PM EDT Friday, May 24, 2019
Currently Today's Max Today's Min Today's Average
Temperature 53.7°F12.1°C 73.5°F23.1°C 53.7°F12.1°C 61.4°F16.3°C
Dew Point 47.0°F8.3°C 58.0°F14.4°C 47.0°F8.3°C 52.9°F11.6°C
Winds 4.0 mph N6.4 kmh N 13.0 mph -20.9 kmh - - 3.8 mph 6.1 kmh
Wind Gusts 7.0 mph11.3 kmh 25.0 mph40.2 kmh - -
Humidity 77% 87% 52% 74%
Pressure 30.01 in1016.3 mb 30.01 in1016.3 mb 29.59 in1002.0 mb -
Precipitation - 0.25 in6.4 mm - -
Hour Temp Dew Point Humidity Winds Wind Gusts Pressure Precip Precip Rate Daily Precip Total
08:20 PM 53.7°F12.1°C 47.0°F8.3°C 77% 4.0 mph N6.4 kmh N 7.0 mph11.3 kmh 30.01 in1016.3 mb 0.00 in0.0 mm 0.00 in0.0 mm 0.25 in6.4 mm
08:15 PM 53.9°F12.2°C 47.0°F8.3°C 77% 2.0 mph NNW3.2 kmh NNW 6.0 mph9.7 kmh 30.01 in1016.3 mb 0.00 in0.0 mm 0.00 in0.0 mm 0.25 in6.4 mm
08:10 PM 54.0°F12.2°C 47.0°F8.3°C 77% Calm Calm 6.0 mph9.7 kmh 30.01 in1016.3 mb 0.00 in0.0 mm 0.00 in0.0 mm 0.25 in6.4 mm
08:05 PM 54.1°F12.3°C 47.0°F8.3°C 76% 4.0 mph NNE6.4 kmh NNE 9.0 mph14.5 kmh 30.01 in1016.3 mb 0.00 in0.0 mm 0.00 in0.0 mm 0.25 in6.4 mm
08:00 PM 54.1°F12.3°C 47.0°F8.3°C 76% 4.0 mph NE6.4 kmh NE 9.0 mph14.5 kmh 30.01 in1016.3 mb 0.00 in0.0 mm 0.00 in0.0 mm 0.25 in6.4 mm
07:55 PM 54.2°F12.3°C 47.0°F8.3°C 76% 6.0 mph NNE9.7 kmh NNE 9.0 mph14.5 kmh 30.00 in1015.9 mb 0.00 in0.0 mm 0.00 in0.0 mm 0.25 in6.4 mm
07:50 PM 54.2°F12.3°C 47.0°F8.3°C 76% 5.0 mph N8.0 kmh N 8.0 mph12.9 kmh 29.99 in1015.6 mb 0.00 in0.0 mm 0.00 in0.0 mm 0.25 in6.4 mm
07:45 PM 54.2°F12.3°C 47.0°F8.3°C 76% 3.0 mph NNE4.8 kmh NNE 7.0 mph11.3 kmh 29.99 in1015.6 mb 0.00 in0.0 mm 0.00 in0.0 mm 0.25 in6.4 mm
07:40 PM 54.3°F12.4°C 47.0°F8.3°C 76% 4.0 mph NNE6.4 kmh NNE 7.0 mph11.3 kmh 29.99 in1015.6 mb 0.00 in0.0 mm 0.00 in0.0 mm 0.25 in6.4 mm
07:35 PM 54.3°F12.4°C 47.0°F8.3°C 76% 5.0 mph NE8.0 kmh NE 7.0 mph11.3 kmh 29.99 in1015.6 mb 0.00 in0.0 mm 0.00 in0.0 mm 0.25 in6.4 mm
07:30 PM 54.4°F12.4°C 47.0°F8.3°C 76% 4.0 mph N6.4 kmh N 7.0 mph11.3 kmh 29.99 in1015.6 mb 0.00 in0.0 mm 0.00 in0.0 mm 0.25 in6.4 mm
07:25 PM 54.5°F12.5°C 47.0°F8.3°C 76% 4.0 mph NNE6.4 kmh NNE 7.0 mph11.3 kmh 29.98 in1015.2 mb 0.00 in0.0 mm 0.00 in0.0 mm 0.25 in6.4 mm
07:20 PM 54.4°F12.4°C 47.0°F8.3°C 76% 6.0 mph NNE9.7 kmh NNE 7.0 mph11.3 kmh 29.98 in1015.2 mb 0.00 in0.0 mm 0.00 in0.0 mm 0.25 in6.4 mm
07:15 PM 54.4°F12.4°C 47.0°F8.3°C 76% 1.0 mph N1.6 kmh N 6.0 mph9.7 kmh 29.97 in1014.9 mb 0.00 in0.0 mm 0.00 in0.0 mm 0.25 in6.4 mm
07:10 PM 54.5°F12.5°C 47.0°F8.3°C 76% 5.0 mph NNE8.0 kmh NNE 7.0 mph11.3 kmh 29.97 in1014.9 mb 0.00 in0.0 mm 0.00 in0.0 mm 0.25 in6.4 mm
07:05 PM 54.6°F12.6°C 47.0°F8.3°C 76% 2.0 mph NNE3.2 kmh NNE 8.0 mph12.9 kmh 29.97 in1014.9 mb 0.00 in0.0 mm 0.00 in0.0 mm 0.25 in6.4 mm
07:00 PM 54.8°F12.7°C 47.0°F8.3°C 75% 6.0 mph NNE9.7 kmh NNE 8.0 mph12.9 kmh 29.97 in1014.9 mb 0.00 in0.0 mm 0.00 in0.0 mm 0.25 in6.4 mm
06:55 PM 54.9°F12.7°C 47.0°F8.3°C 75% 5.0 mph NE8.0 kmh NE 9.0 mph14.5 kmh 29.96 in1014.6 mb 0.00 in0.0 mm 0.00 in0.0 mm 0.25 in6.4 mm
06:50 PM 55.0°F12.8°C 47.0°F8.3°C 75% 4.0 mph ENE6.4 kmh ENE 10.0 mph16.1 kmh 29.96 in1014.6 mb 0.00 in0.0 mm 0.00 in0.0 mm 0.25 in6.4 mm
06:45 PM 55.2°F12.9°C 47.0°F8.3°C 75% 6.0 mph NNW9.7 kmh NNW 13.0 mph20.9 kmh 29.96 in1014.6 mb 0.00 in0.0 mm 0.00 in0.0 mm 0.25 in6.4 mm
06:40 PM 55.3°F12.9°C 48.0°F8.9°C 75% 6.0 mph N9.7 kmh N 13.0 mph20.9 kmh 29.95 in1014.2 mb 0.00 in0.0 mm 0.00 in0.0 mm 0.25 in6.4 mm
06:35 PM 55.4°F13.0°C 48.0°F8.9°C 75% 5.0 mph N8.0 kmh N 8.0 mph12.9 kmh 29.94 in1013.9 mb 0.00 in0.0 mm 0.00 in0.0 mm 0.25 in6.4 mm
06:30 PM 55.5°F13.1°C 47.0°F8.3°C 74% 3.0 mph N4.8 kmh N 11.0 mph17.7 kmh 29.94 in1013.9 mb 0.00 in0.0 mm 0.00 in0.0 mm 0.25 in6.4 mm
06:25 PM 55.6°F13.1°C 47.0°F8.3°C 74% 6.0 mph N9.7 kmh N 11.0 mph17.7 kmh 29.94 in1013.9 mb 0.00 in0.0 mm 0.00 in0.0 mm 0.25 in6.4 mm
06:20 PM 55.8°F13.2°C 47.0°F8.3°C 73% 7.0 mph NNE11.3 kmh NNE 10.0 mph16.1 kmh 29.94 in1013.9 mb 0.00 in0.0 mm 0.00 in0.0 mm 0.25 in6.4 mm
06:15 PM 56.0°F13.3°C 47.0°F8.3°C 73% 6.0 mph NE9.7 kmh NE 10.0 mph16.1 kmh 29.94 in1013.9 mb 0.00 in0.0 mm 0.00 in0.0 mm 0.25 in6.4 mm
06:10 PM 56.2°F13.4°C 47.0°F8.3°C 72% 8.0 mph NE12.9 kmh NE 11.0 mph17.7 kmh 29.93 in1013.5 mb 0.00 in0.0 mm 0.00 in0.0 mm 0.25 in6.4 mm
06:05 PM 56.6°F13.7°C 48.0°F8.9°C 72% 5.0 mph NE8.0 kmh NE 11.0 mph17.7 kmh 29.93 in1013.5 mb 0.00 in0.0 mm 0.00 in0.0 mm 0.25 in6.4 mm
06:00 PM 56.9°F13.8°C 48.0°F8.9°C 71% 5.0 mph NNE8.0 kmh NNE 10.0 mph16.1 kmh 29.93 in1013.5 mb 0.00 in0.0 mm 0.00 in0.0 mm 0.25 in6.4 mm
05:55 PM 57.1°F13.9°C 48.0°F8.9°C 71% 5.0 mph N8.0 kmh N 11.0 mph17.7 kmh 29.92 in1013.2 mb 0.00 in0.0 mm 0.00 in0.0 mm 0.25 in6.4 mm
05:50 PM 57.4°F14.1°C 48.0°F8.9°C 70% 8.0 mph NNE12.9 kmh NNE 11.0 mph17.7 kmh 29.92 in1013.2 mb 0.00 in0.0 mm 0.00 in0.0 mm 0.25 in6.4 mm
05:45 PM 57.3°F14.1°C 48.0°F8.9°C 71% 1.0 mph NNE1.6 kmh NNE 11.0 mph17.7 kmh 29.92 in1013.2 mb 0.00 in0.0 mm 0.00 in0.0 mm 0.25 in6.4 mm
05:40 PM 57.3°F14.1°C 48.0°F8.9°C 71% 5.0 mph NNE8.0 kmh NNE 9.0 mph14.5 kmh 29.91 in1012.9 mb 0.00 in0.0 mm 0.00 in0.0 mm 0.25 in6.4 mm
05:35 PM 57.1°F13.9°C 48.0°F8.9°C 71% 6.0 mph N9.7 kmh N 9.0 mph14.5 kmh 29.91 in1012.9 mb 0.00 in0.0 mm 0.00 in0.0 mm 0.25 in6.4 mm
05:30 PM 57.4°F14.1°C 48.0°F8.9°C 71% 6.0 mph N9.7 kmh N 10.0 mph16.1 kmh 29.91 in1012.9 mb 0.00 in0.0 mm 0.00 in0.0 mm 0.25 in6.4 mm
05:25 PM 57.4°F14.1°C 48.0°F8.9°C 70% 4.0 mph NNE6.4 kmh NNE 10.0 mph16.1 kmh 29.91 in1012.9 mb 0.00 in0.0 mm 0.00 in0.0 mm 0.25 in6.4 mm
05:20 PM 57.6°F14.2°C 48.0°F8.9°C 71% 5.0 mph N8.0 kmh N 9.0 mph14.5 kmh 29.90 in1012.5 mb 0.00 in0.0 mm 0.00 in0.0 mm 0.25 in6.4 mm
05:15 PM 57.6°F14.2°C 48.0°F8.9°C 70% 3.0 mph NNE4.8 kmh NNE 10.0 mph16.1 kmh 29.90 in1012.5 mb 0.00 in0.0 mm 0.00 in0.0 mm 0.25 in6.4 mm
05:10 PM 57.8°F14.3°C 48.0°F8.9°C 70% 7.0 mph NE11.3 kmh NE 12.0 mph19.3 kmh 29.89 in1012.2 mb 0.00 in0.0 mm 0.00 in0.0 mm 0.25 in6.4 mm
05:05 PM 57.7°F14.3°C 48.0°F8.9°C 70% 7.0 mph N11.3 kmh N 12.0 mph19.3 kmh 29.89 in1012.2 mb 0.00 in0.0 mm 0.00 in0.0 mm 0.25 in6.4 mm
05:00 PM 57.5°F14.2°C 48.0°F8.9°C 70% 4.0 mph N6.4 kmh N 10.0 mph16.1 kmh 29.89 in1012.2 mb 0.00 in0.0 mm 0.00 in0.0 mm 0.25 in6.4 mm
04:55 PM 57.8°F14.3°C 48.0°F8.9°C 69% 6.0 mph NNE9.7 kmh NNE 7.0 mph11.3 kmh 29.88 in1011.9 mb 0.00 in0.0 mm 0.00 in0.0 mm 0.25 in6.4 mm
04:50 PM 58.0°F14.4°C 48.0°F8.9°C 70% 5.0 mph N8.0 kmh N 8.0 mph12.9 kmh 29.88 in1011.9 mb 0.00 in0.0 mm 0.00 in0.0 mm 0.25 in6.4 mm
04:45 PM 57.8°F14.3°C 48.0°F8.9°C 70% 5.0 mph N8.0 kmh N 8.0 mph12.9 kmh 29.88 in1011.9 mb 0.00 in0.0 mm 0.00 in0.0 mm 0.25 in6.4 mm
04:40 PM 57.5°F14.2°C 48.0°F8.9°C 70% 4.0 mph NNE6.4 kmh NNE 10.0 mph16.1 kmh 29.87 in1011.5 mb 0.00 in0.0 mm 0.00 in0.0 mm 0.25 in6.4 mm
04:35 PM 57.6°F14.2°C 47.0°F8.3°C 69% 5.0 mph N8.0 kmh N 10.0 mph16.1 kmh 29.87 in1011.5 mb 0.00 in0.0 mm 0.00 in0.0 mm 0.25 in6.4 mm
04:30 PM 57.9°F14.4°C 48.0°F8.9°C 69% 2.0 mph N3.2 kmh N 9.0 mph14.5 kmh 29.86 in1011.2 mb 0.00 in0.0 mm 0.00 in0.0 mm 0.25 in6.4 mm
04:25 PM 58.1°F14.5°C 48.0°F8.9°C 69% 4.0 mph NNE6.4 kmh NNE 9.0 mph14.5 kmh 29.86 in1011.2 mb 0.00 in0.0 mm 0.00 in0.0 mm 0.25 in6.4 mm
04:20 PM 58.2°F14.6°C 48.0°F8.9°C 68% 5.0 mph ENE8.0 kmh ENE 9.0 mph14.5 kmh 29.86 in1011.2 mb 0.00 in0.0 mm 0.00 in0.0 mm 0.25 in6.4 mm
04:15 PM 58.6°F14.8°C 48.0°F8.9°C 69% 6.0 mph N9.7 kmh N 10.0 mph16.1 kmh 29.86 in1011.2 mb 0.00 in0.0 mm 0.00 in0.0 mm 0.25 in6.4 mm
04:10 PM 58.6°F14.8°C 48.0°F8.9°C 68% 5.0 mph N8.0 kmh N 10.0 mph16.1 kmh 29.85 in1010.8 mb 0.00 in0.0 mm 0.00 in0.0 mm 0.25 in6.4 mm
04:05 PM 58.3°F14.6°C 48.0°F8.9°C 69% 5.0 mph NNE8.0 kmh NNE 10.0 mph16.1 kmh 29.85 in1010.8 mb 0.00 in0.0 mm 0.00 in0.0 mm 0.25 in6.4 mm
04:00 PM 58.5°F14.7°C 48.0°F8.9°C 68% 7.0 mph N11.3 kmh N 10.0 mph16.1 kmh 29.84 in1010.5 mb 0.00 in0.0 mm 0.00 in0.0 mm 0.25 in6.4 mm
03:55 PM 58.5°F14.7°C 48.0°F8.9°C 69% 8.0 mph NE12.9 kmh NE 12.0 mph19.3 kmh 29.84 in1010.5 mb 0.00 in0.0 mm 0.00 in0.0 mm 0.25 in6.4 mm
03:50 PM 58.4°F14.7°C 48.0°F8.9°C 68% 3.0 mph NNE4.8 kmh NNE 12.0 mph19.3 kmh 29.84 in1010.5 mb 0.00 in0.0 mm 0.00 in0.0 mm 0.25 in6.4 mm
03:45 PM 58.1°F14.5°C 48.0°F8.9°C 70% 4.0 mph NNW6.4 kmh NNW 8.0 mph12.9 kmh 29.83 in1010.2 mb 0.00 in0.0 mm 0.00 in0.0 mm 0.25 in6.4 mm
03:40 PM 58.1°F14.5°C 48.0°F8.9°C 69% 5.0 mph N8.0 kmh N 9.0 mph14.5 kmh 29.83 in1010.2 mb 0.00 in0.0 mm 0.00 in0.0 mm 0.25 in6.4 mm
03:35 PM 58.6°F14.8°C 48.0°F8.9°C 68% 7.0 mph NNE11.3 kmh NNE 9.0 mph14.5 kmh 29.83 in1010.2 mb 0.00 in0.0 mm 0.00 in0.0 mm 0.25 in6.4 mm
03:30 PM 59.3°F15.2°C 49.0°F9.4°C 68% 2.0 mph NNE3.2 kmh NNE 8.0 mph12.9 kmh 29.82 in1009.8 mb 0.00 in0.0 mm 0.00 in0.0 mm 0.25 in6.4 mm
03:25 PM 59.5°F15.3°C 49.0°F9.4°C 68% 4.0 mph NNE6.4 kmh NNE 7.0 mph11.3 kmh 29.82 in1009.8 mb 0.00 in0.0 mm 0.00 in0.0 mm 0.25 in6.4 mm
03:20 PM 59.0°F15.0°C 48.0°F8.9°C 68% 3.0 mph N4.8 kmh N 7.0 mph11.3 kmh 29.82 in1009.8 mb 0.00 in0.0 mm 0.00 in0.0 mm 0.25 in6.4 mm
03:15 PM 59.1°F15.1°C 48.0°F8.9°C 68% 3.0 mph NNE4.8 kmh NNE 8.0 mph12.9 kmh 29.81 in1009.5 mb 0.00 in0.0 mm 0.00 in0.0 mm 0.25 in6.4 mm
03:10 PM 59.6°F15.3°C 49.0°F9.4°C 68% 3.0 mph N4.8 kmh N 9.0 mph14.5 kmh 29.81 in1009.5 mb 0.00 in0.0 mm 0.00 in0.0 mm 0.25 in6.4 mm
03:05 PM 59.5°F15.3°C 49.0°F9.4°C 68% 2.0 mph NNE3.2 kmh NNE 9.0 mph14.5 kmh 29.81 in1009.5 mb 0.00 in0.0 mm 0.00 in0.0 mm 0.25 in6.4 mm
03:00 PM 59.8°F15.4°C 50.0°F10.0°C 69% 5.0 mph NNE8.0 kmh NNE 9.0 mph14.5 kmh 29.80 in1009.1 mb 0.00 in0.0 mm 0.00 in0.0 mm 0.25 in6.4 mm
02:55 PM 58.9°F14.9°C 49.0°F9.4°C 70% 5.0 mph NNE8.0 kmh NNE 11.0 mph17.7 kmh 29.80 in1009.1 mb 0.00 in0.0 mm 0.00 in0.0 mm 0.25 in6.4 mm
02:50 PM 58.9°F14.9°C 49.0°F9.4°C 69% 6.0 mph N9.7 kmh N 11.0 mph17.7 kmh 29.80 in1009.1 mb 0.00 in0.0 mm 0.00 in0.0 mm 0.25 in6.4 mm
02:45 PM 59.4°F15.2°C 50.0°F10.0°C 70% 5.0 mph NE8.0 kmh NE 10.0 mph16.1 kmh 29.80 in1009.1 mb 0.00 in0.0 mm 0.00 in0.0 mm 0.25 in6.4 mm
02:40 PM 58.6°F14.8°C 50.0°F10.0°C 72% 4.0 mph NNE6.4 kmh NNE 10.0 mph16.1 kmh 29.80 in1009.1 mb 0.00 in0.0 mm 0.00 in0.0 mm 0.25 in6.4 mm
02:35 PM 58.1°F14.5°C 49.0°F9.4°C 71% 5.0 mph N8.0 kmh N 7.0 mph11.3 kmh 29.79 in1008.8 mb 0.00 in0.0 mm 0.00 in0.0 mm 0.25 in6.4 mm
02:30 PM 58.2°F14.6°C 49.0°F9.4°C 71% 2.0 mph NNE3.2 kmh NNE 8.0 mph12.9 kmh 29.79 in1008.8 mb 0.00 in0.0 mm 0.00 in0.0 mm 0.25 in6.4 mm
02:25 PM 58.2°F14.6°C 49.0°F9.4°C 71% 5.0 mph NNE8.0 kmh NNE 8.0 mph12.9 kmh 29.79 in1008.8 mb 0.00 in0.0 mm 0.00 in0.0 mm 0.25 in6.4 mm
02:20 PM 57.9°F14.4°C 49.0°F9.4°C 72% 4.0 mph N6.4 kmh N 8.0 mph12.9 kmh 29.78 in1008.5 mb 0.00 in0.0 mm 0.00 in0.0 mm 0.25 in6.4 mm
02:15 PM 57.9°F14.4°C 49.0°F9.4°C 72% 4.0 mph NNE6.4 kmh NNE 8.0 mph12.9 kmh 29.78 in1008.5 mb 0.00 in0.0 mm 0.00 in0.0 mm 0.25 in6.4 mm
02:10 PM 58.1°F14.5°C 49.0°F9.4°C 73% 7.0 mph N11.3 kmh N 7.0 mph11.3 kmh 29.77 in1008.1 mb 0.00 in0.0 mm 0.00 in0.0 mm 0.25 in6.4 mm
02:05 PM 58.1°F14.5°C 49.0°F9.4°C 73% 5.0 mph N8.0 kmh N 6.0 mph9.7 kmh 29.77 in1008.1 mb 0.00 in0.0 mm 0.00 in0.0 mm 0.25 in6.4 mm
02:00 PM 57.8°F14.3°C 49.0°F9.4°C 72% 2.0 mph NNE3.2 kmh NNE 6.0 mph9.7 kmh 29.76 in1007.8 mb 0.00 in0.0 mm 0.00 in0.0 mm 0.25 in6.4 mm
01:55 PM 57.9°F14.4°C 49.0°F9.4°C 72% 2.0 mph N3.2 kmh N 6.0 mph9.7 kmh 29.75 in1007.5 mb 0.00 in0.0 mm 0.00 in0.0 mm 0.25 in6.4 mm
01:50 PM 57.9°F14.4°C 49.0°F9.4°C 73% 1.0 mph NNE1.6 kmh NNE 7.0 mph11.3 kmh 29.75 in1007.5 mb 0.00 in0.0 mm 0.00 in0.0 mm 0.25 in6.4 mm
01:45 PM 57.8°F14.3°C 49.0°F9.4°C 72% 4.0 mph NNE6.4 kmh NNE 7.0 mph11.3 kmh 29.75 in1007.5 mb 0.00 in0.0 mm 0.00 in0.0 mm 0.25 in6.4 mm
01:40 PM 58.3°F14.6°C 49.0°F9.4°C 72% 3.0 mph N4.8 kmh N 6.0 mph9.7 kmh 29.74 in1007.1 mb 0.00 in0.0 mm 0.00 in0.0 mm 0.25 in6.4 mm
01:35 PM 58.4°F14.7°C 49.0°F9.4°C 72% 2.0 mph NNE3.2 kmh NNE 6.0 mph9.7 kmh 29.74 in1007.1 mb 0.00 in0.0 mm 0.00 in0.0 mm 0.25 in6.4 mm
01:30 PM 58.4°F14.7°C 49.0°F9.4°C 72% 2.0 mph NE3.2 kmh NE 7.0 mph11.3 kmh 29.73 in1006.8 mb 0.00 in0.0 mm 0.00 in0.0 mm 0.25 in6.4 mm
01:25 PM 58.6°F14.8°C 49.0°F9.4°C 71% 3.0 mph NNE4.8 kmh NNE 9.0 mph14.5 kmh 29.73 in1006.8 mb 0.00 in0.0 mm 0.00 in0.0 mm 0.25 in6.4 mm
01:20 PM 59.5°F15.3°C 49.0°F9.4°C 69% 4.0 mph NNE6.4 kmh NNE 9.0 mph14.5 kmh 29.73 in1006.8 mb 0.00 in0.0 mm 0.00 in0.0 mm 0.25 in6.4 mm
01:15 PM 59.8°F15.4°C 49.0°F9.4°C 68% 2.0 mph N3.2 kmh N 8.0 mph12.9 kmh 29.72 in1006.4 mb 0.00 in0.0 mm 0.00 in0.0 mm 0.25 in6.4 mm
01:10 PM 60.6°F15.9°C 49.0°F9.4°C 66% 5.0 mph N8.0 kmh N 11.0 mph17.7 kmh 29.72 in1006.4 mb 0.00 in0.0 mm 0.00 in0.0 mm 0.25 in6.4 mm
01:05 PM 62.1°F16.7°C 49.0°F9.4°C 62% 1.0 mph NE1.6 kmh NE 11.0 mph17.7 kmh 29.71 in1006.1 mb 0.00 in0.0 mm 0.00 in0.0 mm 0.25 in6.4 mm
01:00 PM 65.9°F18.8°C 51.0°F10.6°C 58% 6.0 mph NNW9.7 kmh NNW 15.0 mph24.1 kmh 29.70 in1005.8 mb 0.00 in0.0 mm 0.00 in0.0 mm 0.25 in6.4 mm
12:55 PM 69.0°F20.6°C 53.0°F11.7°C 57% 6.0 mph NNE9.7 kmh NNE 15.0 mph24.1 kmh 29.70 in1005.8 mb 0.00 in0.0 mm 0.00 in0.0 mm 0.25 in6.4 mm
12:50 PM 69.3°F20.7°C 54.0°F12.2°C 58% 3.0 mph WNW4.8 kmh WNW 7.0 mph11.3 kmh 29.68 in1005.1 mb 0.00 in0.0 mm 0.00 in0.0 mm 0.25 in6.4 mm
12:45 PM 69.2°F20.7°C 53.0°F11.7°C 57% 5.0 mph N8.0 kmh N 8.0 mph12.9 kmh 29.68 in1005.1 mb 0.00 in0.0 mm 0.00 in0.0 mm 0.25 in6.4 mm
12:40 PM 69.3°F20.7°C 53.0°F11.7°C 57% 5.0 mph N8.0 kmh N 10.0 mph16.1 kmh 29.68 in1005.1 mb 0.00 in0.0 mm 0.00 in0.0 mm 0.25 in6.4 mm
12:35 PM 69.6°F20.9°C 53.0°F11.7°C 55% 3.0 mph N4.8 kmh N 10.0 mph16.1 kmh 29.68 in1005.1 mb 0.00 in0.0 mm 0.00 in0.0 mm 0.25 in6.4 mm
12:30 PM 69.5°F20.8°C 52.0°F11.1°C 55% 2.0 mph NE3.2 kmh NE 10.0 mph16.1 kmh 29.68 in1005.1 mb 0.00 in0.0 mm 0.00 in0.0 mm 0.25 in6.4 mm
12:25 PM 70.0°F21.1°C 53.0°F11.7°C 56% 2.0 mph NNW3.2 kmh NNW 10.0 mph16.1 kmh 29.68 in1005.1 mb 0.00 in0.0 mm 0.00 in0.0 mm 0.25 in6.4 mm
12:20 PM 70.9°F21.6°C 52.0°F11.1°C 52% 4.0 mph N6.4 kmh N 8.0 mph12.9 kmh 29.67 in1004.7 mb 0.00 in0.0 mm 0.00 in0.0 mm 0.25 in6.4 mm
12:15 PM 71.0°F21.7°C 54.0°F12.2°C 55% 4.0 mph NNW6.4 kmh NNW 9.0 mph14.5 kmh 29.67 in1004.7 mb 0.00 in0.0 mm 0.00 in0.0 mm 0.25 in6.4 mm
12:10 PM 69.9°F21.1°C 53.0°F11.7°C 56% 1.0 mph N1.6 kmh N 10.0 mph16.1 kmh 29.66 in1004.4 mb 0.00 in0.0 mm 0.00 in0.0 mm 0.25 in6.4 mm
12:05 PM 70.9°F21.6°C 54.0°F12.2°C 55% 4.0 mph NW6.4 kmh NW 10.0 mph16.1 kmh 29.66 in1004.4 mb 0.00 in0.0 mm 0.00 in0.0 mm 0.25 in6.4 mm
12:00 PM 72.8°F22.7°C 55.0°F12.8°C 54% 6.0 mph NNE9.7 kmh NNE 11.0 mph17.7 kmh 29.65 in1004.1 mb 0.00 in0.0 mm 0.00 in0.0 mm 0.25 in6.4 mm
11:55 AM 72.2°F22.3°C 55.0°F12.8°C 55% 5.0 mph NE8.0 kmh NE 22.0 mph35.4 kmh 29.65 in1004.1 mb 0.00 in0.0 mm 0.00 in0.0 mm 0.25 in6.4 mm
11:50 AM 70.9°F21.6°C 54.0°F12.2°C 55% 5.0 mph NE8.0 kmh NE 22.0 mph35.4 kmh 29.65 in1004.1 mb 0.00 in0.0 mm 0.00 in0.0 mm 0.25 in6.4 mm
11:45 AM 72.5°F22.5°C 55.0°F12.8°C 55% 4.0 mph N6.4 kmh N 8.0 mph12.9 kmh 29.65 in1004.1 mb 0.00 in0.0 mm 0.00 in0.0 mm 0.25 in6.4 mm
11:40 AM 71.8°F22.1°C 55.0°F12.8°C 56% 1.0 mph WSW1.6 kmh WSW 8.0 mph12.9 kmh 29.64 in1003.7 mb 0.00 in0.0 mm 0.00 in0.0 mm 0.25 in6.4 mm
11:35 AM 71.9°F22.2°C 55.0°F12.8°C 55% 3.0 mph N4.8 kmh N 10.0 mph16.1 kmh 29.64 in1003.7 mb 0.00 in0.0 mm 0.00 in0.0 mm 0.25 in6.4 mm
11:30 AM 72.5°F22.5°C 56.0°F13.3°C 56% 2.0 mph N3.2 kmh N 15.0 mph24.1 kmh 29.64 in1003.7 mb 0.00 in0.0 mm 0.00 in0.0 mm 0.25 in6.4 mm
11:25 AM 73.1°F22.8°C 56.0°F13.3°C 56% 6.0 mph WSW9.7 kmh WSW 15.0 mph24.1 kmh 29.64 in1003.7 mb 0.00 in0.0 mm 0.00 in0.0 mm 0.25 in6.4 mm
11:20 AM 73.2°F22.9°C 56.0°F13.3°C 56% 5.0 mph NNW8.0 kmh NNW 15.0 mph24.1 kmh 29.65 in1004.1 mb 0.00 in0.0 mm 0.00 in0.0 mm 0.25 in6.4 mm
11:15 AM 73.5°F23.1°C 56.0°F13.3°C 55% 5.0 mph SSW8.0 kmh SSW 9.0 mph14.5 kmh 29.64 in1003.7 mb 0.00 in0.0 mm 0.00 in0.0 mm 0.25 in6.4 mm
11:10 AM 73.1°F22.8°C 56.0°F13.3°C 55% 7.0 mph NE11.3 kmh NE 10.0 mph16.1 kmh 29.64 in1003.7 mb 0.00 in0.0 mm 0.00 in0.0 mm 0.25 in6.4 mm
11:05 AM 72.7°F22.6°C 56.0°F13.3°C 57% 3.0 mph SE4.8 kmh SE 16.0 mph25.7 kmh 29.63 in1003.4 mb 0.00 in0.0 mm 0.00 in0.0 mm 0.25 in6.4 mm
11:00 AM 72.5°F22.5°C 55.0°F12.8°C 55% 6.0 mph NNW9.7 kmh NNW 16.0 mph25.7 kmh 29.62 in1003.0 mb 0.00 in0.0 mm 0.00 in0.0 mm 0.25 in6.4 mm
10:55 AM 73.2°F22.9°C 56.0°F13.3°C 56% 2.0 mph W3.2 kmh W 14.0 mph22.5 kmh 29.63 in1003.4 mb 0.00 in0.0 mm 0.00 in0.0 mm 0.25 in6.4 mm
10:50 AM 73.1°F22.8°C 56.0°F13.3°C 56% 6.0 mph NW9.7 kmh NW 14.0 mph22.5 kmh 29.62 in1003.0 mb 0.00 in0.0 mm 0.00 in0.0 mm 0.25 in6.4 mm
10:45 AM 72.6°F22.6°C 56.0°F13.3°C 56% 5.0 mph NW8.0 kmh NW 18.0 mph29.0 kmh 29.62 in1003.0 mb 0.00 in0.0 mm 0.00 in0.0 mm 0.25 in6.4 mm
10:40 AM 72.1°F22.3°C 56.0°F13.3°C 58% 1.0 mph W1.6 kmh W 18.0 mph29.0 kmh 29.63 in1003.4 mb 0.00 in0.0 mm 0.00 in0.0 mm 0.25 in6.4 mm
10:35 AM 72.2°F22.3°C 56.0°F13.3°C 58% 6.0 mph NNW9.7 kmh NNW 12.0 mph19.3 kmh 29.62 in1003.0 mb 0.00 in0.0 mm 0.00 in0.0 mm 0.25 in6.4 mm
10:30 AM 71.4°F21.9°C 56.0°F13.3°C 59% 5.0 mph N8.0 kmh N 23.0 mph37.0 kmh 29.62 in1003.0 mb 0.00 in0.0 mm 0.00 in0.0 mm 0.25 in6.4 mm
10:25 AM 71.6°F22.0°C 56.0°F13.3°C 59% 2.0 mph SW3.2 kmh SW 23.0 mph37.0 kmh 29.62 in1003.0 mb 0.00 in0.0 mm 0.00 in0.0 mm 0.25 in6.4 mm
10:20 AM 71.0°F21.7°C 55.0°F12.8°C 58% 10.0 mph WNW16.1 kmh WNW 13.0 mph20.9 kmh 29.61 in1002.7 mb 0.00 in0.0 mm 0.00 in0.0 mm 0.25 in6.4 mm
10:15 AM 71.7°F22.1°C 55.0°F12.8°C 57% 2.0 mph ENE3.2 kmh ENE 13.0 mph20.9 kmh 29.62 in1003.0 mb 0.00 in0.0 mm 0.00 in0.0 mm 0.25 in6.4 mm
10:10 AM 72.1°F22.3°C 58.0°F14.4°C 62% 2.0 mph NNW3.2 kmh NNW 8.0 mph12.9 kmh 29.62 in1003.0 mb 0.00 in0.0 mm 0.00 in0.0 mm 0.25 in6.4 mm
10:05 AM 71.1°F21.7°C 56.0°F13.3°C 60% 4.0 mph NE6.4 kmh NE 12.0 mph19.3 kmh 29.62 in1003.0 mb 0.00 in0.0 mm 0.00 in0.0 mm 0.25 in6.4 mm
10:00 AM 70.2°F21.2°C 56.0°F13.3°C 60% 4.0 mph NNE6.4 kmh NNE 15.0 mph24.1 kmh 29.62 in1003.0 mb 0.00 in0.0 mm 0.00 in0.0 mm 0.25 in6.4 mm
09:55 AM 70.2°F21.2°C 57.0°F13.9°C 63% 6.0 mph N9.7 kmh N 14.0 mph22.5 kmh 29.61 in1002.7 mb 0.00 in0.0 mm 0.00 in0.0 mm 0.25 in6.4 mm
09:50 AM 69.8°F21.0°C 55.0°F12.8°C 60% 2.0 mph SE3.2 kmh SE 15.0 mph24.1 kmh 29.62 in1003.0 mb 0.00 in0.0 mm 0.00 in0.0 mm 0.25 in6.4 mm
09:45 AM 71.1°F21.7°C 56.0°F13.3°C 60% 5.0 mph SW8.0 kmh SW 15.0 mph24.1 kmh 29.61 in1002.7 mb 0.00 in0.0 mm 0.00 in0.0 mm 0.25 in6.4 mm
09:40 AM 70.4°F21.3°C 57.0°F13.9°C 62% 1.0 mph N1.6 kmh N 9.0 mph14.5 kmh 29.61 in1002.7 mb 0.00 in0.0 mm 0.00 in0.0 mm 0.25 in6.4 mm
09:35 AM 70.0°F21.1°C 56.0°F13.3°C 62% 1.0 mph E1.6 kmh E 12.0 mph19.3 kmh 29.61 in1002.7 mb 0.00 in0.0 mm 0.00 in0.0 mm 0.25 in6.4 mm
09:30 AM 70.3°F21.3°C 57.0°F13.9°C 64% 4.0 mph E6.4 kmh E 12.0 mph19.3 kmh 29.61 in1002.7 mb 0.00 in0.0 mm 0.00 in0.0 mm 0.25 in6.4 mm
09:25 AM 69.7°F20.9°C 57.0°F13.9°C 64% 4.0 mph NW6.4 kmh NW 12.0 mph19.3 kmh 29.61 in1002.7 mb 0.00 in0.0 mm 0.00 in0.0 mm 0.25 in6.4 mm
09:20 AM 69.0°F20.6°C 56.0°F13.3°C 64% 2.0 mph N3.2 kmh N 15.0 mph24.1 kmh 29.61 in1002.7 mb 0.00 in0.0 mm 0.00 in0.0 mm 0.25 in6.4 mm
09:15 AM 69.0°F20.6°C 57.0°F13.9°C 65% 9.0 mph WSW14.5 kmh WSW 15.0 mph24.1 kmh 29.61 in1002.7 mb 0.00 in0.0 mm 0.00 in0.0 mm 0.25 in6.4 mm
09:10 AM 68.8°F20.4°C 56.0°F13.3°C 65% 4.0 mph SW6.4 kmh SW 12.0 mph19.3 kmh 29.61 in1002.7 mb 0.00 in0.0 mm 0.00 in0.0 mm 0.25 in6.4 mm
09:05 AM 68.4°F20.2°C 57.0°F13.9°C 66% 4.0 mph NE6.4 kmh NE 12.0 mph19.3 kmh 29.61 in1002.7 mb 0.00 in0.0 mm 0.00 in0.0 mm 0.25 in6.4 mm
09:00 AM 68.6°F20.3°C 58.0°F14.4°C 69% 5.0 mph SSE8.0 kmh SSE 9.0 mph14.5 kmh 29.61 in1002.7 mb 0.00 in0.0 mm 0.00 in0.0 mm 0.25 in6.4 mm
08:55 AM 68.0°F20.0°C 56.0°F13.3°C 66% 2.0 mph SE3.2 kmh SE 9.0 mph14.5 kmh 29.61 in1002.7 mb 0.00 in0.0 mm 0.00 in0.0 mm 0.25 in6.4 mm
08:50 AM 67.6°F19.8°C 57.0°F13.9°C 68% 4.0 mph NE6.4 kmh NE 9.0 mph14.5 kmh 29.61 in1002.7 mb 0.00 in0.0 mm 0.00 in0.0 mm 0.25 in6.4 mm
08:45 AM 67.1°F19.5°C 57.0°F13.9°C 70% 1.0 mph NE1.6 kmh NE 11.0 mph17.7 kmh 29.61 in1002.7 mb 0.00 in0.0 mm 0.00 in0.0 mm 0.25 in6.4 mm
08:40 AM 66.9°F19.4°C 57.0°F13.9°C 70% 5.0 mph N8.0 kmh N 11.0 mph17.7 kmh 29.61 in1002.7 mb 0.00 in0.0 mm 0.00 in0.0 mm 0.25 in6.4 mm
08:35 AM 66.5°F19.2°C 57.0°F13.9°C 71% 5.0 mph NW8.0 kmh NW 15.0 mph24.1 kmh 29.61 in1002.7 mb 0.00 in0.0 mm 0.00 in0.0 mm 0.25 in6.4 mm
08:30 AM 65.9°F18.8°C 56.0°F13.3°C 71% 1.0 mph NW1.6 kmh NW 15.0 mph24.1 kmh 29.61 in1002.7 mb 0.00 in0.0 mm 0.00 in0.0 mm 0.25 in6.4 mm
08:25 AM 65.5°F18.6°C 56.0°F13.3°C 72% 4.0 mph NE6.4 kmh NE 15.0 mph24.1 kmh 29.61 in1002.7 mb 0.00 in0.0 mm 0.00 in0.0 mm 0.25 in6.4 mm
08:20 AM 65.3°F18.5°C 57.0°F13.9°C 74% 5.0 mph NNE8.0 kmh NNE 15.0 mph24.1 kmh 29.62 in1003.0 mb 0.00 in0.0 mm 0.00 in0.0 mm 0.25 in6.4 mm
08:15 AM 64.9°F18.3°C 56.0°F13.3°C 74% 2.0 mph S3.2 kmh S 11.0 mph17.7 kmh 29.62 in1003.0 mb 0.00 in0.0 mm 0.00 in0.0 mm 0.25 in6.4 mm
08:10 AM 64.5°F18.1°C 56.0°F13.3°C 75% 3.0 mph NNW4.8 kmh NNW 13.0 mph20.9 kmh 29.61 in1002.7 mb 0.00 in0.0 mm 0.00 in0.0 mm 0.25 in6.4 mm
08:05 AM 63.8°F17.7°C 56.0°F13.3°C 77% 1.0 mph E1.6 kmh E 18.0 mph29.0 kmh 29.62 in1003.0 mb 0.00 in0.0 mm 0.00 in0.0 mm 0.25 in6.4 mm
08:00 AM 63.1°F17.3°C 57.0°F13.9°C 80% 1.0 mph NNW1.6 kmh NNW 18.0 mph29.0 kmh 29.62 in1003.0 mb 0.00 in0.0 mm 0.00 in0.0 mm 0.25 in6.4 mm
07:55 AM 62.0°F16.7°C 57.0°F13.9°C 83% 2.0 mph WSW3.2 kmh WSW 16.0 mph25.7 kmh 29.61 in1002.7 mb 0.00 in0.0 mm 0.00 in0.0 mm 0.25 in6.4 mm
07:50 AM 61.2°F16.2°C 57.0°F13.9°C 86% 4.0 mph NE6.4 kmh NE 13.0 mph20.9 kmh 29.62 in1003.0 mb 0.00 in0.0 mm 0.00 in0.0 mm 0.25 in6.4 mm
07:45 AM 60.9°F16.1°C 57.0°F13.9°C 86% 4.0 mph NW6.4 kmh NW 13.0 mph20.9 kmh 29.61 in1002.7 mb 0.00 in0.0 mm 0.00 in0.0 mm 0.25 in6.4 mm
07:40 AM 60.7°F15.9°C 57.0°F13.9°C 87% 1.0 mph NNW1.6 kmh NNW 13.0 mph20.9 kmh 29.61 in1002.7 mb 0.00 in0.0 mm 0.00 in0.0 mm 0.25 in6.4 mm
07:35 AM 60.4°F15.8°C 57.0°F13.9°C 87% 5.0 mph WSW8.0 kmh WSW 11.0 mph17.7 kmh 29.61 in1002.7 mb 0.00 in0.0 mm 0.00 in0.0 mm 0.25 in6.4 mm
07:30 AM 60.1°F15.6°C 56.0°F13.3°C 87% 1.0 mph N1.6 kmh N 10.0 mph16.1 kmh 29.61 in1002.7 mb 0.00 in0.0 mm 0.00 in0.0 mm 0.25 in6.4 mm
07:25 AM 59.8°F15.4°C 56.0°F13.3°C 87% Calm Calm 6.0 mph9.7 kmh 29.61 in1002.7 mb 0.00 in0.0 mm 0.00 in0.0 mm 0.25 in6.4 mm
07:20 AM 59.4°F15.2°C 56.0°F13.3°C 87% 1.0 mph E1.6 kmh E 13.0 mph20.9 kmh 29.61 in1002.7 mb 0.00 in0.0 mm 0.00 in0.0 mm 0.25 in6.4 mm
07:15 AM 59.2°F15.1°C 55.0°F12.8°C 87% 2.0 mph WSW3.2 kmh WSW 13.0 mph20.9 kmh 29.61 in1002.7 mb 0.00 in0.0 mm 0.00 in0.0 mm 0.25 in6.4 mm
07:10 AM 59.0°F15.0°C 55.0°F12.8°C 87% 13.0 mph SW20.9 kmh SW 13.0 mph20.9 kmh 29.61 in1002.7 mb 0.00 in0.0 mm 0.00 in0.0 mm 0.25 in6.4 mm
07:05 AM 58.8°F14.9°C 55.0°F12.8°C 87% 1.0 mph SE1.6 kmh SE 12.0 mph19.3 kmh 29.61 in1002.7 mb 0.00 in0.0 mm 0.00 in0.0 mm 0.25 in6.4 mm
07:00 AM 58.7°F14.8°C 55.0°F12.8°C 87% 2.0 mph SW3.2 kmh SW 15.0 mph24.1 kmh 29.61 in1002.7 mb 0.00 in0.0 mm 0.00 in0.0 mm 0.25 in6.4 mm
06:55 AM 58.7°F14.8°C 55.0°F12.8°C 87% 2.0 mph SSE3.2 kmh SSE 15.0 mph24.1 kmh 29.60 in1002.4 mb 0.00 in0.0 mm 0.00 in0.0 mm 0.25 in6.4 mm
06:50 AM 58.6°F14.8°C 55.0°F12.8°C 87% 6.0 mph WSW9.7 kmh WSW 21.0 mph33.8 kmh 29.61 in1002.7 mb 0.00 in0.0 mm 0.00 in0.0 mm 0.25 in6.4 mm
06:45 AM 58.6°F14.8°C 55.0°F12.8°C 87% 2.0 mph NW3.2 kmh NW 21.0 mph33.8 kmh 29.61 in1002.7 mb 0.00 in0.0 mm 0.00 in0.0 mm 0.25 in6.4 mm
06:40 AM 58.6°F14.8°C 55.0°F12.8°C 87% 1.0 mph NW1.6 kmh NW 21.0 mph33.8 kmh 29.59 in1002.0 mb 0.00 in0.0 mm 0.00 in0.0 mm 0.25 in6.4 mm
06:35 AM 58.6°F14.8°C 55.0°F12.8°C 87% 6.0 mph SW9.7 kmh SW 14.0 mph22.5 kmh 29.59 in1002.0 mb 0.00 in0.0 mm 0.00 in0.0 mm 0.25 in6.4 mm
06:30 AM 58.6°F14.8°C 55.0°F12.8°C 87% 5.0 mph WSW8.0 kmh WSW 14.0 mph22.5 kmh 29.60 in1002.4 mb 0.00 in0.0 mm 0.00 in0.0 mm 0.25 in6.4 mm
06:25 AM 58.6°F14.8°C 55.0°F12.8°C 87% 1.0 mph SE1.6 kmh SE 10.0 mph16.1 kmh 29.59 in1002.0 mb 0.00 in0.0 mm 0.00 in0.0 mm 0.25 in6.4 mm
06:20 AM 58.6°F14.8°C 55.0°F12.8°C 86% 2.0 mph SW3.2 kmh SW 9.0 mph14.5 kmh 29.60 in1002.4 mb 0.00 in0.0 mm 0.00 in0.0 mm 0.25 in6.4 mm
06:15 AM 58.7°F14.8°C 55.0°F12.8°C 86% Calm Calm 9.0 mph14.5 kmh 29.60 in1002.4 mb 0.00 in0.0 mm 0.00 in0.0 mm 0.25 in6.4 mm
06:10 AM 58.8°F14.9°C 55.0°F12.8°C 86% 4.0 mph SW6.4 kmh SW 9.0 mph14.5 kmh 29.60 in1002.4 mb 0.00 in0.0 mm 0.00 in0.0 mm 0.25 in6.4 mm
06:05 AM 58.8°F14.9°C 55.0°F12.8°C 86% 4.0 mph NW6.4 kmh NW 9.0 mph14.5 kmh 29.59 in1002.0 mb 0.00 in0.0 mm 0.00 in0.0 mm 0.25 in6.4 mm
06:00 AM 58.9°F14.9°C 55.0°F12.8°C 86% 1.0 mph SW1.6 kmh SW 6.0 mph9.7 kmh 29.59 in1002.0 mb 0.00 in0.0 mm 0.00 in0.0 mm 0.25 in6.4 mm
05:55 AM 59.0°F15.0°C 55.0°F12.8°C 86% Calm Calm 11.0 mph17.7 kmh 29.60 in1002.4 mb 0.00 in0.0 mm 0.00 in0.0 mm 0.25 in6.4 mm
05:50 AM 59.0°F15.0°C 55.0°F12.8°C 86% 5.0 mph N8.0 kmh N 12.0 mph19.3 kmh 29.60 in1002.4 mb 0.00 in0.0 mm 0.00 in0.0 mm 0.25 in6.4 mm
05:45 AM 59.0°F15.0°C 55.0°F12.8°C 86% Calm Calm 12.0 mph19.3 kmh 29.60 in1002.4 mb 0.00 in0.0 mm 0.00 in0.0 mm 0.25 in6.4 mm
05:40 AM 59.1°F15.1°C 55.0°F12.8°C 86% 3.0 mph WSW4.8 kmh WSW 12.0 mph19.3 kmh 29.60 in1002.4 mb 0.00 in0.0 mm 0.00 in0.0 mm 0.25 in6.4 mm
05:35 AM 59.1°F15.1°C 55.0°F12.8°C 86% 4.0 mph SW6.4 kmh SW 12.0 mph19.3 kmh 29.60 in1002.4 mb 0.00 in0.0 mm 0.00 in0.0 mm 0.25 in6.4 mm
05:30 AM 59.0°F15.0°C 55.0°F12.8°C 86% Calm Calm 9.0 mph14.5 kmh 29.60 in1002.4 mb 0.00 in0.0 mm 0.00 in0.0 mm 0.25 in6.4 mm
05:25 AM 59.0°F15.0°C 55.0°F12.8°C 86% 7.0 mph SW11.3 kmh SW 10.0 mph16.1 kmh 29.60 in1002.4 mb 0.00 in0.0 mm 0.00 in0.0 mm 0.25 in6.4 mm
05:20 AM 59.1°F15.1°C 55.0°F12.8°C 86% 1.0 mph SSE1.6 kmh SSE 10.0 mph16.1 kmh 29.60 in1002.4 mb 0.00 in0.0 mm 0.00 in0.0 mm 0.25 in6.4 mm
05:15 AM 59.0°F15.0°C 55.0°F12.8°C 86% 10.0 mph S16.1 kmh S 10.0 mph16.1 kmh 29.60 in1002.4 mb 0.00 in0.0 mm 0.00 in0.0 mm 0.25 in6.4 mm
05:10 AM 59.0°F15.0°C 55.0°F12.8°C 86% 4.0 mph SSW6.4 kmh SSW 8.0 mph12.9 kmh 29.60 in1002.4 mb 0.00 in0.0 mm 0.00 in0.0 mm 0.25 in6.4 mm
05:05 AM 59.0°F15.0°C 55.0°F12.8°C 86% 1.0 mph SW1.6 kmh SW 7.0 mph11.3 kmh 29.60 in1002.4 mb 0.00 in0.0 mm 0.00 in0.0 mm 0.25 in6.4 mm
05:00 AM 59.0°F15.0°C 55.0°F12.8°C 86% 1.0 mph S1.6 kmh S 7.0 mph11.3 kmh 29.61 in1002.7 mb 0.00 in0.0 mm 0.00 in0.0 mm 0.25 in6.4 mm
04:55 AM 59.1°F15.1°C 55.0°F12.8°C 86% 1.0 mph SW1.6 kmh SW 7.0 mph11.3 kmh 29.61 in1002.7 mb 0.00 in0.0 mm 0.00 in0.0 mm 0.25 in6.4 mm
04:50 AM 59.1°F15.1°C 55.0°F12.8°C 86% 5.0 mph WSW8.0 kmh WSW 7.0 mph11.3 kmh 29.61 in1002.7 mb 0.00 in0.0 mm 0.00 in0.0 mm 0.25 in6.4 mm
04:45 AM 59.2°F15.1°C 55.0°F12.8°C 86% 3.0 mph S4.8 kmh S 7.0 mph11.3 kmh 29.61 in1002.7 mb 0.00 in0.0 mm 0.00 in0.0 mm 0.25 in6.4 mm
04:40 AM 59.2°F15.1°C 55.0°F12.8°C 86% 4.0 mph SSW6.4 kmh SSW 8.0 mph12.9 kmh 29.61 in1002.7 mb 0.00 in0.0 mm 0.00 in0.0 mm 0.25 in6.4 mm
04:35 AM 59.1°F15.1°C 55.0°F12.8°C 86% Calm Calm 8.0 mph12.9 kmh 29.61 in1002.7 mb 0.00 in0.0 mm 0.00 in0.0 mm 0.25 in6.4 mm
04:30 AM 59.2°F15.1°C 55.0°F12.8°C 86% 1.0 mph SW1.6 kmh SW 5.0 mph8.0 kmh 29.61 in1002.7 mb 0.00 in0.0 mm 0.00 in0.0 mm 0.25 in6.4 mm
04:25 AM 59.2°F15.1°C 55.0°F12.8°C 86% 1.0 mph SW1.6 kmh SW 5.0 mph8.0 kmh 29.61 in1002.7 mb 0.00 in0.0 mm 0.00 in0.0 mm 0.25 in6.4 mm
04:20 AM 59.3°F15.2°C 55.0°F12.8°C 86% 2.0 mph SW3.2 kmh SW 7.0 mph11.3 kmh 29.61 in1002.7 mb 0.00 in0.0 mm 0.00 in0.0 mm 0.25 in6.4 mm
04:15 AM 59.3°F15.2°C 55.0°F12.8°C 86% 2.0 mph WSW3.2 kmh WSW 8.0 mph12.9 kmh 29.61 in1002.7 mb 0.00 in0.0 mm 0.00 in0.0 mm 0.25 in6.4 mm
04:10 AM 59.5°F15.3°C 55.0°F12.8°C 86% 2.0 mph S3.2 kmh S 8.0 mph12.9 kmh 29.61 in1002.7 mb 0.00 in0.0 mm 0.00 in0.0 mm 0.25 in6.4 mm
04:05 AM 59.6°F15.3°C 56.0°F13.3°C 86% 1.0 mph W1.6 kmh W 7.0 mph11.3 kmh 29.61 in1002.7 mb 0.00 in0.0 mm 0.00 in0.0 mm 0.25 in6.4 mm
04:00 AM 59.8°F15.4°C 56.0°F13.3°C 86% 1.0 mph SSW1.6 kmh SSW 5.0 mph8.0 kmh 29.61 in1002.7 mb 0.00 in0.0 mm 0.00 in0.0 mm 0.25 in6.4 mm
03:55 AM 59.8°F15.4°C 56.0°F13.3°C 86% 1.0 mph SSE1.6 kmh SSE 5.0 mph8.0 kmh 29.61 in1002.7 mb 0.00 in0.0 mm 0.00 in0.0 mm 0.25 in6.4 mm
03:50 AM 59.8°F15.4°C 56.0°F13.3°C 86% Calm Calm 6.0 mph9.7 kmh 29.61 in1002.7 mb 0.00 in0.0 mm 0.00 in0.0 mm 0.25 in6.4 mm
03:45 AM 60.0°F15.6°C 56.0°F13.3°C 86% Calm Calm 7.0 mph11.3 kmh 29.61 in1002.7 mb 0.00 in0.0 mm 0.00 in0.0 mm 0.25 in6.4 mm
03:40 AM 60.0°F15.6°C 56.0°F13.3°C 86% 1.0 mph S1.6 kmh S 7.0 mph11.3 kmh 29.62 in1003.0 mb 0.00 in0.0 mm 0.00 in0.0 mm 0.25 in6.4 mm
03:35 AM 60.1°F15.6°C 56.0°F13.3°C 86% 2.0 mph SW3.2 kmh SW 8.0 mph12.9 kmh 29.62 in1003.0 mb 0.00 in0.0 mm 0.00 in0.0 mm 0.25 in6.4 mm
03:30 AM 60.2°F15.7°C 56.0°F13.3°C 86% 2.0 mph SW3.2 kmh SW 8.0 mph12.9 kmh 29.62 in1003.0 mb 0.00 in0.0 mm 0.00 in0.0 mm 0.25 in6.4 mm
03:25 AM 60.2°F15.7°C 56.0°F13.3°C 86% 4.0 mph S6.4 kmh S 6.0 mph9.7 kmh 29.62 in1003.0 mb 0.00 in0.0 mm 0.00 in0.0 mm 0.25 in6.4 mm
03:20 AM 60.3°F15.7°C 56.0°F13.3°C 86% 3.0 mph W4.8 kmh W 6.0 mph9.7 kmh 29.63 in1003.4 mb 0.00 in0.0 mm 0.00 in0.0 mm 0.25 in6.4 mm
03:15 AM 60.3°F15.7°C 56.0°F13.3°C 86% 4.0 mph SW6.4 kmh SW 7.0 mph11.3 kmh 29.63 in1003.4 mb 0.00 in0.0 mm 0.00 in0.0 mm 0.25 in6.4 mm
03:10 AM 60.4°F15.8°C 56.0°F13.3°C 86% 2.0 mph SW3.2 kmh SW 7.0 mph11.3 kmh 29.63 in1003.4 mb 0.00 in0.0 mm 0.00 in0.0 mm 0.25 in6.4 mm
03:05 AM 60.5°F15.8°C 56.0°F13.3°C 86% 6.0 mph SSW9.7 kmh SSW 7.0 mph11.3 kmh 29.64 in1003.7 mb 0.00 in0.0 mm 0.00 in0.0 mm 0.25 in6.4 mm
03:00 AM 60.5°F15.8°C 56.0°F13.3°C 86% 2.0 mph S3.2 kmh S 6.0 mph9.7 kmh 29.64 in1003.7 mb 0.00 in0.0 mm 0.00 in0.0 mm 0.25 in6.4 mm
02:55 AM 60.5°F15.8°C 56.0°F13.3°C 86% 1.0 mph SW1.6 kmh SW 7.0 mph11.3 kmh 29.64 in1003.7 mb 0.00 in0.0 mm 0.00 in0.0 mm 0.25 in6.4 mm
02:50 AM 60.6°F15.9°C 56.0°F13.3°C 86% 1.0 mph SW1.6 kmh SW 8.0 mph12.9 kmh 29.64 in1003.7 mb 0.00 in0.0 mm 0.00 in0.0 mm 0.25 in6.4 mm
02:45 AM 60.5°F15.8°C 56.0°F13.3°C 86% 1.0 mph SW1.6 kmh SW 8.0 mph12.9 kmh 29.64 in1003.7 mb 0.00 in0.0 mm 0.00 in0.0 mm 0.25 in6.4 mm
02:40 AM 60.5°F15.8°C 56.0°F13.3°C 85% 4.0 mph SW6.4 kmh SW 8.0 mph12.9 kmh 29.64 in1003.7 mb 0.00 in0.0 mm 0.00 in0.0 mm 0.25 in6.4 mm
02:35 AM 60.5°F15.8°C 56.0°F13.3°C 85% 1.0 mph SW1.6 kmh SW 9.0 mph14.5 kmh 29.65 in1004.1 mb 0.00 in0.0 mm 0.00 in0.0 mm 0.25 in6.4 mm
02:30 AM 60.5°F15.8°C 56.0°F13.3°C 85% 1.0 mph SSW1.6 kmh SSW 9.0 mph14.5 kmh 29.65 in1004.1 mb 0.00 in0.0 mm 0.00 in0.0 mm 0.25 in6.4 mm
02:25 AM 60.4°F15.8°C 56.0°F13.3°C 85% 1.0 mph SSW1.6 kmh SSW 9.0 mph14.5 kmh 29.66 in1004.4 mb 0.00 in0.0 mm 0.00 in0.0 mm 0.25 in6.4 mm
02:20 AM 60.4°F15.8°C 56.0°F13.3°C 85% 3.0 mph S4.8 kmh S 9.0 mph14.5 kmh 29.66 in1004.4 mb 0.00 in0.0 mm 0.00 in0.0 mm 0.25 in6.4 mm
02:15 AM 60.4°F15.8°C 56.0°F13.3°C 85% 1.0 mph WSW1.6 kmh WSW 8.0 mph12.9 kmh 29.66 in1004.4 mb 0.00 in0.0 mm 0.00 in0.0 mm 0.25 in6.4 mm
02:10 AM 60.4°F15.8°C 56.0°F13.3°C 85% 1.0 mph SW1.6 kmh SW 9.0 mph14.5 kmh 29.66 in1004.4 mb 0.00 in0.0 mm 0.00 in0.0 mm 0.25 in6.4 mm
02:05 AM 60.3°F15.7°C 56.0°F13.3°C 85% 2.0 mph SW3.2 kmh SW 10.0 mph16.1 kmh 29.66 in1004.4 mb 0.00 in0.0 mm 0.00 in0.0 mm 0.25 in6.4 mm
02:00 AM 60.3°F15.7°C 56.0°F13.3°C 85% 4.0 mph S6.4 kmh S 10.0 mph16.1 kmh 29.66 in1004.4 mb 0.00 in0.0 mm 0.00 in0.0 mm 0.25 in6.4 mm
01:55 AM 60.4°F15.8°C 56.0°F13.3°C 85% 5.0 mph SW8.0 kmh SW 12.0 mph19.3 kmh 29.66 in1004.4 mb 0.00 in0.0 mm 0.00 in0.0 mm 0.25 in6.4 mm
01:50 AM 60.4°F15.8°C 56.0°F13.3°C 85% 7.0 mph SSW11.3 kmh SSW 12.0 mph19.3 kmh 29.67 in1004.7 mb 0.00 in0.0 mm 0.00 in0.0 mm 0.25 in6.4 mm
01:45 AM 60.3°F15.7°C 56.0°F13.3°C 84% 8.0 mph SW12.9 kmh SW 12.0 mph19.3 kmh 29.68 in1005.1 mb 0.00 in0.0 mm 0.00 in0.0 mm 0.25 in6.4 mm
01:40 AM 60.4°F15.8°C 56.0°F13.3°C 84% 4.0 mph S6.4 kmh S 9.0 mph14.5 kmh 29.68 in1005.1 mb 0.00 in0.0 mm 0.00 in0.0 mm 0.25 in6.4 mm
01:35 AM 60.4°F15.8°C 56.0°F13.3°C 84% 1.0 mph WSW1.6 kmh WSW 9.0 mph14.5 kmh 29.69 in1005.4 mb 0.04 in1.0 mm 0.00 in0.0 mm 0.24 in6.1 mm
01:30 AM 60.5°F15.8°C 56.0°F13.3°C 84% 5.0 mph SSW8.0 kmh SSW 9.0 mph14.5 kmh 29.70 in1005.8 mb 0.04 in1.0 mm 0.00 in0.0 mm 0.24 in6.1 mm
01:25 AM 60.5°F15.8°C 56.0°F13.3°C 84% 3.0 mph S4.8 kmh S 10.0 mph16.1 kmh 29.70 in1005.8 mb 0.04 in1.0 mm 0.00 in0.0 mm 0.24 in6.1 mm
01:20 AM 60.6°F15.9°C 56.0°F13.3°C 84% 8.0 mph SSW12.9 kmh SSW 10.0 mph16.1 kmh 29.70 in1005.8 mb 0.04 in1.0 mm 0.00 in0.0 mm 0.23 in5.8 mm
01:15 AM 60.7°F15.9°C 56.0°F13.3°C 84% 1.0 mph S1.6 kmh S 8.0 mph12.9 kmh 29.71 in1006.1 mb 0.05 in1.3 mm 0.00 in0.0 mm 0.23 in5.8 mm
01:10 AM 60.9°F16.1°C 56.0°F13.3°C 84% 4.0 mph S6.4 kmh S 8.0 mph12.9 kmh 29.72 in1006.4 mb 0.10 in2.5 mm 0.00 in0.0 mm 0.23 in5.8 mm
01:05 AM 61.0°F16.1°C 56.0°F13.3°C 83% 4.0 mph SW6.4 kmh SW 10.0 mph16.1 kmh 29.72 in1006.4 mb 0.24 in6.1 mm 0.00 in0.0 mm 0.23 in5.8 mm
01:00 AM 61.2°F16.2°C 56.0°F13.3°C 83% 2.0 mph SW3.2 kmh SW 10.0 mph16.1 kmh 29.72 in1006.4 mb 0.53 in13.5 mm 0.00 in0.0 mm 0.18 in4.6 mm
12:55 AM 61.2°F16.2°C 56.0°F13.3°C 83% 1.0 mph S1.6 kmh S 8.0 mph12.9 kmh 29.74 in1007.1 mb 1.92 in48.8 mm 18.12 in460.2 mm 0.06 in1.5 mm
12:50 AM 61.2°F16.2°C 56.0°F13.3°C 83% 5.0 mph NNE8.0 kmh NNE 16.0 mph25.7 kmh 29.73 in1006.8 mb 0.41 in10.4 mm 4.92 in125.0 mm 0.02 in0.5 mm
12:45 AM 61.1°F16.2°C 56.0°F13.3°C 83% 2.0 mph S3.2 kmh S 16.0 mph25.7 kmh 29.69 in1005.4 mb 0.00 in0.0 mm 0.00 in0.0 mm 0.00 in0.0 mm
12:40 AM 61.1°F16.2°C 56.0°F13.3°C 83% 12.0 mph S19.3 kmh S 21.0 mph33.8 kmh 29.68 in1005.1 mb 0.00 in0.0 mm 0.00 in0.0 mm 0.00 in0.0 mm
12:35 AM 61.0°F16.1°C 56.0°F13.3°C 83% 11.0 mph SSW17.7 kmh SSW 21.0 mph33.8 kmh 29.68 in1005.1 mb 0.00 in0.0 mm 0.00 in0.0 mm 0.00 in0.0 mm
12:30 AM 61.0°F16.1°C 56.0°F13.3°C 83% 2.0 mph SE3.2 kmh SE 21.0 mph33.8 kmh 29.69 in1005.4 mb 0.00 in0.0 mm 0.00 in0.0 mm 0.00 in0.0 mm
12:25 AM 60.9°F16.1°C 56.0°F13.3°C 83% 5.0 mph NW8.0 kmh NW 20.0 mph32.2 kmh 29.69 in1005.4 mb 0.00 in0.0 mm 0.00 in0.0 mm 0.00 in0.0 mm
12:20 AM 60.8°F16.0°C 56.0°F13.3°C 83% 10.0 mph S16.1 kmh S 21.0 mph33.8 kmh 29.70 in1005.8 mb 0.00 in0.0 mm 0.00 in0.0 mm 0.00 in0.0 mm
12:15 AM 60.7°F15.9°C 56.0°F13.3°C 83% 9.0 mph WSW14.5 kmh WSW 16.0 mph25.7 kmh 29.70 in1005.8 mb 0.00 in0.0 mm 0.00 in0.0 mm 0.00 in0.0 mm
12:10 AM 60.6°F15.9°C 55.0°F12.8°C 83% 10.0 mph SSE16.1 kmh SSE 16.0 mph25.7 kmh 29.71 in1006.1 mb 0.00 in0.0 mm 0.00 in0.0 mm 0.00 in0.0 mm
12:05 AM 60.5°F15.8°C 55.0°F12.8°C 83% 13.0 mph SSW20.9 kmh SSW 25.0 mph40.2 kmh 29.71 in1006.1 mb 0.00 in0.0 mm 0.00 in0.0 mm 0.00 in0.0 mm
12:00 AM 60.4°F15.8°C 55.0°F12.8°C 83% 5.0 mph SW8.0 kmh SW 25.0 mph40.2 kmh 29.71 in1006.1 mb 0.00 in0.0 mm 0.00 in0.0 mm 0.00 in0.0 mm